Time;durP1;ratioP1;P1;durP2;ratioP2;P2;SDS_P1;SDS_P2;PMS_P1;PMS_P2;Temp;Humidity;BMP_temperature;BMP_pressure;BME280_temperature;BME280_humidity;BME280_pressure;Samples;Min_cycle;Max_cycle;Signal;HPM_P1;HPM_P2
2024/01/26 00:01:53;;;;;;;26.40;12.32;;;;;;;12.82;58.04;97328.22;6155512;23;20383;-26
2024/01/26 00:04:19;;;;;;;28.38;11.65;;;;;;;12.84;58.38;97330.53;6155467;23;20082;-26
2024/01/26 00:06:44;;;;;;;31.60;12.88;;;;;;;12.91;57.94;97325.72;6155188;23;20032;-26
2024/01/26 00:09:11;;;;;;;35.30;14.55;;;;;;;12.85;57.91;97332.06;6155350;23;20001;-26
2024/01/26 00:11:37;;;;;;;34.97;13.85;;;;;;;12.73;58.32;97330.75;6129312;23;20343;-26
2024/01/26 00:14:04;;;;;;;31.63;14.77;;;;;;;12.63;58.82;97337.13;6157401;23;20002;-26
2024/01/26 00:16:29;;;;;;;38.40;15.07;;;;;;;12.67;58.65;97321.53;6157379;23;20002;-26
2024/01/26 00:18:55;;;;;;;42.88;16.23;;;;;;;12.75;58.20;97311.25;6156948;23;20032;-26
2024/01/26 00:21:20;;;;;;;48.42;16.50;;;;;;;12.94;57.69;97313.22;6157460;23;20037;-26
2024/01/26 00:23:46;;;;;;;44.58;18.23;;;;;;;12.78;58.14;97304.97;6157268;23;20308;-26
2024/01/26 00:26:14;;;;;;;43.35;18.10;;;;;;;12.65;58.78;97309.50;6157122;23;20327;-26
2024/01/26 00:28:41;;;;;;;48.08;16.00;;;;;;;12.85;58.13;97304.84;6157339;23;20002;-26
2024/01/26 00:31:07;;;;;;;42.88;14.00;;;;;;;12.72;58.35;97312.09;6156853;23;20005;-26
2024/01/26 00:33:33;;;;;;;36.83;14.20;;;;;;;12.96;57.89;97316.28;6157291;23;20028;-26
2024/01/26 00:35:59;;;;;;;30.48;11.57;;;;;;;12.87;58.06;97311.38;6157063;23;20009;-26
2024/01/26 00:38:25;;;;;;;20.15;8.57;;;;;;;12.77;58.44;97301.50;6157154;23;20348;-26
2024/01/26 00:40:51;;;;;;;17.30;8.43;;;;;;;12.70;58.45;97300.88;6156959;23;20367;-26
2024/01/26 00:43:19;;;;;;;26.95;10.20;;;;;;;12.79;58.34;97303.78;6156922;23;20013;-26
2024/01/26 00:45:44;;;;;;;20.73;9.05;;;;;;;12.80;58.32;97302.59;6157500;23;20005;-26
2024/01/26 00:48:10;;;;;;;22.17;9.02;;;;;;;12.59;58.97;97304.56;6157163;23;20056;-26
2024/01/26 00:50:35;;;;;;;23.42;10.02;;;;;;;12.85;58.40;97305.63;6156874;23;20001;-26
2024/01/26 00:53:01;;;;;;;30.90;10.45;;;;;;;12.86;58.18;97311.81;6156884;23;20005;-26
2024/01/26 00:55:29;;;;;;;21.60;9.23;;;;;;;12.92;58.35;97316.34;6156623;23;20001;-26
2024/01/26 00:57:56;;;;;;;17.38;8.25;;;;;;;12.88;58.13;97318.38;6156931;23;20002;-26
2024/01/26 01:00:23;;;;;;;17.90;8.38;;;;;;;12.83;58.20;97323.56;6156954;23;20006;-26
2024/01/26 01:02:49;;;;;;;16.48;7.10;;;;;;;12.91;58.34;97314.06;6130684;23;20340;-26
2024/01/26 01:05:16;;;;;;;15.35;7.63;;;;;;;12.81;58.55;97304.91;6156931;23;20041;-26
2024/01/26 01:07:41;;;;;;;18.65;8.50;;;;;;;12.83;58.26;97310.72;6156654;23;20009;-26
2024/01/26 01:10:07;;;;;;;22.90;9.73;;;;;;;12.73;58.88;97316.38;6156801;23;20055;-26
2024/01/26 01:12:33;;;;;;;22.00;10.43;;;;;;;12.91;58.01;97314.06;6156620;23;20017;-26
2024/01/26 01:14:58;;;;;;;17.88;10.07;;;;;;;12.71;58.58;97322.22;6156760;23;20012;-26
2024/01/26 01:17:25;;;;;;;17.35;9.88;;;;;;;12.73;58.92;97321.81;6156657;23;20313;-26
2024/01/26 01:19:50;;;;;;;23.80;11.05;;;;;;;12.91;58.34;97324.94;6130519;23;20400;-26
2024/01/26 01:22:16;;;;;;;27.38;11.75;;;;;;;12.84;58.47;97325.09;6156878;23;20009;-26
2024/01/26 01:24:42;;;;;;;23.63;11.43;;;;;;;12.79;58.58;97325.56;6156563;23;20064;-26
2024/01/26 01:27:08;;;;;;;23.70;11.52;;;;;;;12.89;58.22;97319.13;6156613;23;20368;-26
2024/01/26 01:29:33;;;;;;;24.23;11.43;;;;;;;12.99;58.03;97320.09;6156598;23;20076;-26
2024/01/26 01:31:59;;;;;;;23.30;10.73;;;;;;;12.83;58.60;97307.22;6156698;23;20005;-26
2024/01/26 01:34:25;;;;;;;22.52;10.02;;;;;;;12.93;58.16;97304.28;6157099;23;20006;-26
2024/01/26 01:36:52;;;;;;;25.80;9.57;;;;;;;12.66;58.78;97308.31;6156684;23;20029;-26
2024/01/26 01:39:17;;;;;;;23.45;10.20;;;;;;;12.73;58.96;97302.75;6156715;23;20005;-26
2024/01/26 01:41:47;;;;;;;19.80;9.85;;;;;;;12.92;58.16;97305.47;6156778;23;20023;-26
2024/01/26 01:44:12;;;;;;;23.52;11.20;;;;;;;12.81;58.58;97306.88;6156228;23;20002;-26
2024/01/26 01:46:37;;;;;;;24.67;11.73;;;;;;;12.84;58.46;97308.75;6156540;23;20052;-26
2024/01/26 01:49:03;;;;;;;27.00;12.85;;;;;;;12.94;58.53;97303.09;6156448;23;20006;-26
2024/01/26 01:51:33;;;;;;;32.83;13.13;;;;;;;12.85;58.52;97310.28;6156230;23;20028;-26
2024/01/26 01:53:59;;;;;;;27.42;12.50;;;;;;;12.80;59.02;97305.31;6156445;23;20081;-26
2024/01/26 01:56:28;;;;;;;33.78;14.45;;;;;;;12.78;59.16;97310.41;6156046;23;20017;-26
2024/01/26 01:58:53;;;;;;;38.72;17.02;;;;;;;12.69;59.24;97302.81;6156567;23;20073;-26
2024/01/26 02:01:19;;;;;;;46.97;21.23;;;;;;;12.93;58.84;97301.56;6156373;23;20455;-27
2024/01/26 02:03:44;;;;;;;41.42;19.95;;;;;;;12.82;59.20;97305.69;6156182;23;20080;-27
2024/01/26 02:06:10;;;;;;;28.33;14.88;;;;;;;12.84;58.71;97300.59;6156154;23;20028;-27
2024/01/26 02:08:35;;;;;;;37.80;12.82;;;;;;;12.83;58.70;97305.28;6155971;23;20400;-27
2024/01/26 02:11:01;;;;;;;20.85;10.40;;;;;;;12.73;58.25;97308.19;6130207;23;20019;-27
2024/01/26 02:13:26;;;;;;;18.88;9.13;;;;;;;12.71;58.43;97305.91;6156236;23;20001;-27
2024/01/26 02:15:51;;;;;;;18.33;8.60;;;;;;;12.60;59.14;97310.78;6156166;23;20005;-27
2024/01/26 02:18:17;;;;;;;23.52;10.40;;;;;;;12.61;58.94;97306.84;6156108;23;20009;-27
2024/01/26 02:20:42;;;;;;;27.20;12.02;;;;;;;12.69;59.10;97307.50;6155934;23;20005;-27
2024/01/26 02:23:08;;;;;;;34.05;14.80;;;;;;;12.59;59.16;97307.28;6156060;23;20012;-27
2024/01/26 02:25:33;;;;;;;28.38;12.80;;;;;;;12.68;58.85;97300.50;6156421;23;20032;-27
2024/01/26 02:27:59;;;;;;;21.77;11.23;;;;;;;12.55;59.56;97292.97;6155889;23;20001;-27
2024/01/26 02:30:24;;;;;;;22.85;11.07;;;;;;;12.68;59.08;97300.50;6155982;23;20055;-27
2024/01/26 02:32:50;;;;;;;13.82;8.20;;;;;;;12.70;58.97;97298.91;6156263;23;20416;-27
2024/01/26 02:35:15;;;;;;;15.10;8.10;;;;;;;12.68;59.38;97301.28;6155274;23;20812;-27
2024/01/26 02:37:41;;;;;;;16.17;8.52;;;;;;;12.77;58.93;97304.22;6156256;23;20009;-27
2024/01/26 02:40:07;;;;;;;17.05;8.18;;;;;;;12.78;58.64;97294.84;6129564;23;20016;-27
2024/01/26 02:42:33;;;;;;;17.13;8.80;;;;;;;12.63;59.23;97293.59;6155816;23;20022;-27
2024/01/26 02:44:59;;;;;;;18.35;9.32;;;;;;;12.80;58.61;97291.72;6156170;23;20536;-27
2024/01/26 02:47:24;;;;;;;18.70;8.32;;;;;;;12.69;58.89;97291.16;6155913;23;20036;-27
2024/01/26 02:49:50;;;;;;;15.25;8.35;;;;;;;12.57;59.16;97295.28;6156111;23;20005;-27
2024/01/26 02:52:15;;;;;;;12.85;8.10;;;;;;;12.74;58.38;97285.97;6155777;23;20002;-27
2024/01/26 02:54:40;;;;;;;18.98;8.82;;;;;;;12.74;58.38;97279.78;6156151;23;20013;-27
2024/01/26 02:57:06;;;;;;;16.05;10.32;;;;;;;12.75;58.19;97273.91;6155795;23;20012;-27
2024/01/26 03:02:53;;;;;;;16.00;8.05;;;;;;;12.70;58.52;97265.50;6155625;23;20019;-27
2024/01/26 03:05:18;;;;;;;17.27;8.32;;;;;;;12.85;58.44;97258.56;6129713;23;20037;-27
2024/01/26 03:07:44;;;;;;;17.10;8.48;;;;;;;12.71;58.93;97259.63;6155661;23;20002;-27
2024/01/26 03:10:09;;;;;;;19.33;8.63;;;;;;;12.84;58.67;97259.75;6155598;23;20061;-27
2024/01/26 03:12:35;;;;;;;14.32;8.82;;;;;;;12.81;58.77;97261.34;6155515;23;20036;-27
2024/01/26 03:15:01;;;;;;;17.67;8.93;;;;;;;12.93;58.56;97259.94;6155959;23;20478;-27
2024/01/26 03:17:26;;;;;;;17.30;8.45;;;;;;;12.76;58.61;97258.34;6155425;23;20016;-27
2024/01/26 03:19:52;;;;;;;13.20;8.63;;;;;;;12.71;59.12;97251.47;6155511;23;20008;-27
2024/01/26 03:22:17;;;;;;;16.85;9.40;;;;;;;12.67;59.47;97261.66;6155812;23;20025;-27
2024/01/26 03:24:44;;;;;;;20.02;9.23;;;;;;;12.60;59.76;97264.53;6155614;23;20005;-27
2024/01/26 03:27:09;;;;;;;14.50;8.30;;;;;;;12.67;59.58;97267.09;6155432;23;19997;-27
2024/01/26 03:29:35;;;;;;;14.27;8.57;;;;;;;12.49;60.06;97256.53;6155514;23;20016;-27
2024/01/26 03:32:00;;;;;;;15.95;8.38;;;;;;;12.75;59.21;97259.53;6155206;23;20036;-27
2024/01/26 03:34:26;;;;;;;16.75;9.02;;;;;;;12.69;59.75;97263.94;6155365;23;20076;-27
2024/01/26 03:36:51;;;;;;;18.52;9.18;;;;;;;12.73;59.32;97265.44;6155525;23;20005;-27
2024/01/26 03:39:17;;;;;;;19.02;8.70;;;;;;;12.82;59.41;97262.91;6155506;23;20440;-27
2024/01/26 03:41:42;;;;;;;14.25;8.57;;;;;;;12.75;59.68;97257.59;6155511;23;20072;-27
2024/01/26 03:44:07;;;;;;;15.63;9.05;;;;;;;12.53;60.20;97257.25;6155297;23;20002;-27
2024/01/26 03:46:33;;;;;;;13.13;8.27;;;;;;;12.83;59.69;97260.94;6155884;23;20021;-27
2024/01/26 03:49:03;;;;;;;14.52;9.25;;;;;;;12.72;60.10;97269.34;6155794;23;20005;-27
2024/01/26 03:51:29;;;;;;;16.52;8.32;;;;;;;13.01;59.17;97266.00;6155394;23;20310;-27
2024/01/26 03:53:54;;;;;;;16.63;8.52;;;;;;;12.62;60.67;97255.91;6155591;23;20008;-27
2024/01/26 03:56:19;;;;;;;14.93;8.18;;;;;;;13.03;59.36;97266.34;6155106;23;20004;-27
2024/01/26 03:58:45;;;;;;;12.45;7.90;;;;;;;12.70;60.44;97260.03;6155327;23;20016;-27
2024/01/26 04:01:10;;;;;;;19.48;8.73;;;;;;;13.07;59.83;97273.25;6155334;23;20072;-27
2024/01/26 04:03:36;;;;;;;15.13;8.43;;;;;;;12.80;60.47;97261.78;6155371;23;20005;-27
2024/01/26 04:06:04;;;;;;;19.52;9.45;;;;;;;13.20;59.73;97263.28;6129240;23;20066;-27
2024/01/26 04:08:30;;;;;;;16.05;7.85;;;;;;;13.09;59.93;97264.69;6155301;23;20005;-27
2024/01/26 04:10:56;;;;;;;20.95;8.90;;;;;;;13.00;60.64;97272.63;6155319;23;20008;-27
2024/01/26 04:13:21;;;;;;;17.95;8.38;;;;;;;12.92;61.09;97278.25;6155427;23;20055;-27
2024/01/26 04:15:48;;;;;;;15.10;8.13;;;;;;;13.05;60.70;97277.59;6155191;23;20010;-27
2024/01/26 04:18:13;;;;;;;14.65;8.32;;;;;;;13.05;60.83;97275.63;6155561;23;20001;-27
2024/01/26 04:20:39;;;;;;;19.40;8.43;;;;;;;12.91;61.33;97267.75;6155565;23;20416;-27
2024/01/26 04:23:04;;;;;;;19.08;8.60;;;;;;;12.83;61.47;97282.72;6154980;23;20009;-27
2024/01/26 04:25:30;;;;;;;17.92;9.32;;;;;;;12.95;60.78;97280.13;6155494;23;20332;-27
2024/01/26 04:27:55;;;;;;;22.58;9.25;;;;;;;12.95;61.55;97277.41;6155142;23;20005;-27
2024/01/26 04:30:21;;;;;;;19.98;8.65;;;;;;;13.10;60.65;97283.31;6155627;23;20067;-27
2024/01/26 04:32:46;;;;;;;21.42;9.18;;;;;;;13.05;61.27;97281.09;6155604;23;20036;-27
2024/01/26 04:35:12;;;;;;;15.40;8.70;;;;;;;13.13;60.85;97277.00;6154886;23;20008;-27
2024/01/26 04:37:37;;;;;;;15.80;8.30;;;;;;;13.27;60.11;97270.50;6155234;23;20006;-27
2024/01/26 04:40:03;;;;;;;15.20;8.77;;;;;;;13.14;61.04;97278.56;6155251;23;20005;-27
2024/01/26 04:42:28;;;;;;;19.48;8.25;;;;;;;13.13;60.58;97278.97;6155159;23;20017;-27
2024/01/26 04:44:56;;;;;;;15.90;8.52;;;;;;;13.07;61.28;97280.66;6155497;23;20101;-27
2024/01/26 04:47:21;;;;;;;15.80;8.13;;;;;;;13.07;61.31;97284.16;6154860;23;20006;-27
2024/01/26 04:49:46;;;;;;;14.20;7.75;;;;;;;13.13;61.14;97287.13;6155198;23;20029;-27
2024/01/26 04:52:12;;;;;;;15.93;7.75;;;;;;;13.05;61.35;97297.41;6154945;23;20006;-27
2024/01/26 04:54:37;;;;;;;14.40;7.63;;;;;;;13.12;61.45;97297.25;6155151;23;20028;-27
2024/01/26 04:57:03;;;;;;;15.90;7.88;;;;;;;13.23;60.92;97291.59;6155259;23;20016;-27
2024/01/26 04:59:30;;;;;;;14.38;6.40;;;;;;;13.01;62.25;97295.94;6156502;23;20424;-27
2024/01/26 05:01:56;;;;;;;15.75;7.68;;;;;;;13.14;61.63;97294.91;6156876;23;20005;-27
2024/01/26 05:04:21;;;;;;;13.05;7.32;;;;;;;13.06;61.62;97288.06;6157080;23;20032;-27
2024/01/26 05:06:47;;;;;;;13.15;6.78;;;;;;;13.18;61.70;97276.56;6156584;23;20328;-27
2024/01/26 05:09:13;;;;;;;13.48;6.75;;;;;;;13.04;62.55;97289.66;6156879;23;20005;-27
2024/01/26 05:11:38;;;;;;;17.38;6.55;;;;;;;13.23;61.57;97291.59;6157025;23;20006;-27
2024/01/26 05:14:03;;;;;;;14.98;6.57;;;;;;;13.28;61.50;97299.28;6156980;23;20006;-27
2024/01/26 05:16:29;;;;;;;15.68;6.80;;;;;;;13.38;61.43;97294.78;6156661;23;20313;-27
2024/01/26 05:18:55;;;;;;;14.15;6.15;;;;;;;13.28;61.60;97294.63;6156818;23;20420;-27
2024/01/26 05:21:21;;;;;;;18.67;8.07;;;;;;;13.19;62.03;97297.16;6156747;23;20130;-27
2024/01/26 05:23:46;;;;;;;12.38;6.90;;;;;;;13.18;62.33;97295.63;6156758;23;20405;-27
2024/01/26 05:26:12;;;;;;;11.25;5.38;;;;;;;13.29;61.66;97290.69;6156542;23;20009;-27
2024/01/26 05:28:37;;;;;;;11.95;5.82;;;;;;;13.54;60.96;97289.38;6156758;23;20001;-27
2024/01/26 05:31:03;;;;;;;12.52;5.90;;;;;;;13.33;61.61;97295.31;6156473;23;20452;-27
2024/01/26 05:33:29;;;;;;;16.25;6.97;;;;;;;13.21;62.09;97300.22;6156739;23;20339;-27
2024/01/26 05:35:54;;;;;;;14.38;6.32;;;;;;;13.39;61.82;97304.50;6156494;23;20002;-27
2024/01/26 05:38:19;;;;;;;13.55;7.32;;;;;;;13.25;62.05;97305.56;6156537;23;20032;-27
2024/01/26 05:40:46;;;;;;;16.98;7.10;;;;;;;13.25;61.91;97295.44;6156793;23;20013;-27
2024/01/26 05:43:12;;;;;;;14.40;7.75;;;;;;;13.10;62.47;97305.09;6156272;23;20048;-27
2024/01/26 05:45:37;;;;;;;14.43;7.70;;;;;;;13.25;62.07;97306.34;6156912;23;20064;-27
2024/01/26 05:48:04;;;;;;;16.08;8.50;;;;;;;13.37;61.19;97312.31;6131045;23;20021;-27
2024/01/26 05:50:30;;;;;;;16.02;7.63;;;;;;;13.25;61.74;97311.03;6156459;23;20129;-27
2024/01/26 05:52:55;;;;;;;16.05;8.40;;;;;;;13.26;61.84;97315.28;6156651;23;20420;-27
2024/01/26 05:55:21;;;;;;;15.30;7.90;;;;;;;13.27;61.59;97303.19;6156488;23;20076;-27
2024/01/26 05:57:46;;;;;;;14.82;8.82;;;;;;;13.27;61.52;97312.16;6130160;23;20490;-27
2024/01/26 06:00:12;;;;;;;16.80;8.80;;;;;;;13.23;61.43;97305.22;6156575;23;20001;-27
2024/01/26 06:02:38;;;;;;;17.10;8.52;;;;;;;13.32;60.96;97299.22;6156189;23;20057;-27
2024/01/26 06:05:04;;;;;;;19.40;8.93;;;;;;;13.26;61.31;97305.16;6156215;23;20005;-27
2024/01/26 06:07:29;;;;;;;17.25;8.48;;;;;;;13.16;61.52;97308.13;6156121;23;20001;-27
2024/01/26 06:09:55;;;;;;;20.15;8.68;;;;;;;13.20;61.56;97323.22;6155832;23;20075;-27
2024/01/26 06:12:20;;;;;;;16.67;8.82;;;;;;;13.04;62.06;97328.56;6156351;23;20372;-27
2024/01/26 06:14:46;;;;;;;16.10;9.13;;;;;;;13.05;61.76;97324.66;6156070;23;20361;-27
2024/01/26 06:17:11;;;;;;;14.07;9.23;;;;;;;13.14;61.72;97326.81;6156180;23;20009;-27
2024/01/26 06:19:40;;;;;;;14.95;8.95;;;;;;;13.19;61.47;97332.56;6156136;23;20314;-27
2024/01/26 06:22:05;;;;;;;14.38;8.90;;;;;;;13.09;61.45;97336.25;6156457;23;20401;-27
2024/01/26 06:24:31;;;;;;;17.27;9.48;;;;;;;13.07;61.87;97341.34;6156358;23;20005;-27
2024/01/26 06:26:56;;;;;;;17.25;9.02;;;;;;;13.08;61.72;97340.16;6129557;23;19997;-27
2024/01/26 06:29:22;;;;;;;17.55;9.70;;;;;;;13.19;61.36;97343.47;6156114;23;20008;-27
2024/01/26 06:31:47;;;;;;;18.38;8.57;;;;;;;13.13;61.40;97353.25;6156450;23;20012;-27
2024/01/26 06:34:13;;;;;;;17.60;9.23;;;;;;;13.16;61.99;97338.84;6156104;23;20005;-27
2024/01/26 06:36:39;;;;;;;21.08;9.60;;;;;;;13.33;61.14;97344.34;6156098;23;20066;-27
2024/01/26 06:39:04;;;;;;;15.95;9.13;;;;;;;13.25;61.53;97344.47;6155620;23;20002;-27
2024/01/26 06:41:30;;;;;;;19.42;9.38;;;;;;;13.19;61.67;97343.47;6155832;23;20018;-27
2024/01/26 06:43:55;;;;;;;21.65;9.57;;;;;;;13.05;62.21;97343.72;6156264;23;20013;-27
2024/01/26 06:46:24;;;;;;;15.77;8.88;;;;;;;12.97;62.45;97347.78;6155842;23;20040;-27
2024/01/26 06:48:50;;;;;;;18.75;9.48;;;;;;;13.28;61.63;97349.09;6155841;23;20055;-27
2024/01/26 06:51:16;;;;;;;14.52;7.82;;;;;;;13.28;61.64;97354.53;6155695;23;20005;-27
2024/01/26 06:53:42;;;;;;;14.52;7.57;;;;;;;13.32;61.64;97353.72;6155834;23;20015;-27
2024/01/26 06:56:08;;;;;;;17.20;8.05;;;;;;;13.21;62.14;97364.84;6155936;23;20420;-27
2024/01/26 06:58:33;;;;;;;16.88;7.30;;;;;;;13.32;61.88;97364.59;6155737;23;20005;-27
2024/01/26 07:01:00;;;;;;;18.92;7.30;;;;;;;13.14;62.54;97371.19;6155700;23;20003;-27
2024/01/26 07:03:26;;;;;;;15.38;6.97;;;;;;;13.29;61.91;97369.69;6155651;23;20036;-27
2024/01/26 07:05:51;;;;;;;18.85;7.38;;;;;;;13.37;61.79;97366.81;6155667;23;20005;-27
2024/01/26 07:08:17;;;;;;;14.63;6.95;;;;;;;13.37;62.04;97366.81;6155988;23;20029;-27
2024/01/26 07:10:42;;;;;;;11.88;7.32;;;;;;;13.31;62.40;97382.91;6155572;23;20328;-27
2024/01/26 07:13:08;;;;;;;10.57;6.55;;;;;;;13.40;62.13;97385.06;6155842;23;20048;-27
2024/01/26 07:15:34;;;;;;;19.70;7.95;;;;;;;13.26;62.57;97378.72;6155661;23;20012;-27
2024/01/26 07:18:00;;;;;;;18.80;6.97;;;;;;;13.42;61.98;97380.72;6155510;23;20077;-27
2024/01/26 07:20:25;;;;;;;15.95;7.32;;;;;;;13.15;63.10;97386.34;6155584;23;20040;-27
2024/01/26 07:22:50;;;;;;;18.27;6.80;;;;;;;13.10;63.71;97375.16;6155400;23;20428;-27
2024/01/26 07:25:19;;;;;;;18.95;7.07;;;;;;;13.30;62.83;97376.69;6155840;23;20060;-27
2024/01/26 07:27:48;;;;;;;14.55;6.38;;;;;;;13.28;62.77;97370.88;6155838;23;20005;-27
2024/01/26 07:30:17;;;;;;;16.30;6.20;;;;;;;13.26;63.07;97367.81;6155537;23;20008;-27
2024/01/26 07:32:42;;;;;;;10.95;6.03;;;;;;;13.20;62.97;97369.50;6155595;23;20052;-27
2024/01/26 07:35:08;;;;;;;13.25;5.47;;;;;;;13.28;62.89;97381.78;6155602;23;20005;-27
2024/01/26 07:37:34;;;;;;;15.75;6.07;;;;;;;13.36;62.33;97378.91;6155365;23;20432;-27
2024/01/26 07:40:01;;;;;;;12.65;6.15;;;;;;;13.13;63.81;97385.19;6155663;23;20073;-27
2024/01/26 07:42:27;;;;;;;14.70;7.15;;;;;;;13.19;63.24;97389.75;6155130;23;20467;-27
2024/01/26 07:44:52;;;;;;;13.30;6.50;;;;;;;13.35;63.08;97407.38;6155638;23;20002;-27
2024/01/26 07:47:17;;;;;;;13.20;6.07;;;;;;;13.38;62.71;97407.28;6155312;23;20001;-27
2024/01/26 07:49:43;;;;;;;11.82;6.57;;;;;;;13.23;63.12;97419.63;6155455;23;20005;-27
2024/01/26 07:52:08;;;;;;;13.30;6.47;;;;;;;13.14;63.61;97420.19;6155641;23;20005;-27
2024/01/26 07:54:34;;;;;;;12.18;6.57;;;;;;;13.36;62.75;97419.78;6155259;23;20012;-27
2024/01/26 07:56:59;;;;;;;12.80;6.00;;;;;;;13.21;63.40;97430.97;6155545;23;20009;-27
2024/01/26 07:59:25;;;;;;;10.90;6.20;;;;;;;13.05;64.00;97435.53;6155370;23;20080;-27
2024/01/26 08:01:51;;;;;;;11.82;5.97;;;;;;;13.14;63.62;97431.09;6155434;23;20005;-27
2024/01/26 08:04:16;;;;;;;13.05;6.78;;;;;;;13.42;63.13;97420.81;6155428;23;20002;-27
2024/01/26 08:06:42;;;;;;;14.52;6.90;;;;;;;13.47;62.94;97420.34;6155282;23;20001;-27
2024/01/26 08:09:10;;;;;;;13.27;6.43;;;;;;;13.12;64.45;97433.44;6155451;23;20009;-27
2024/01/26 08:11:36;;;;;;;15.25;7.25;;;;;;;13.36;63.77;97427.94;6155150;23;20060;-27
2024/01/26 08:14:02;;;;;;;15.20;7.22;;;;;;;13.15;64.12;97440.81;6155502;23;20305;-27
2024/01/26 08:16:27;;;;;;;15.50;6.90;;;;;;;13.08;64.38;97440.94;6155259;23;20420;-27
2024/01/26 08:18:53;;;;;;;13.40;6.65;;;;;;;13.19;64.08;97443.47;6155234;23;20020;-27
2024/01/26 08:21:19;;;;;;;14.27;7.80;;;;;;;13.24;63.77;97446.47;6155574;23;20412;-27
2024/01/26 08:23:44;;;;;;;13.65;6.50;;;;;;;13.30;63.51;97436.63;6155230;23;20005;-27
2024/01/26 08:26:10;;;;;;;11.80;6.85;;;;;;;13.43;62.98;97442.22;6155262;23;20310;-27
2024/01/26 08:28:36;;;;;;;12.32;6.20;;;;;;;13.37;63.02;97429.47;6155346;23;20008;-27
2024/01/26 08:31:01;;;;;;;13.68;6.43;;;;;;;13.46;63.08;97435.16;6154961;23;20371;-27
2024/01/26 08:33:27;;;;;;;14.13;6.30;;;;;;;13.37;63.64;97441.16;6156302;23;20006;-27
2024/01/26 08:35:52;;;;;;;11.60;5.78;;;;;;;13.36;63.27;97425.22;6157048;23;20081;-27
2024/01/26 08:38:17;;;;;;;14.30;6.28;;;;;;;13.39;62.89;97419.72;6130999;23;20016;-27
2024/01/26 08:40:43;;;;;;;9.65;5.82;;;;;;;13.25;63.38;97425.44;6157070;23;20003;-27
2024/01/26 08:43:09;;;;;;;11.88;5.90;;;;;;;13.36;63.10;97426.00;6156943;23;20021;-27
2024/01/26 08:45:35;;;;;;;14.65;6.32;;;;;;;13.24;63.41;97421.16;6157137;23;20008;-27
2024/01/26 08:48:00;;;;;;;18.75;7.00;;;;;;;13.09;64.46;97423.41;6157162;23;20076;-27
2024/01/26 08:50:26;;;;;;;14.43;6.78;;;;;;;13.16;64.07;97431.44;6156936;23;20337;-27
2024/01/26 08:52:51;;;;;;;16.23;6.10;;;;;;;13.18;64.36;97441.94;6156874;23;20001;-27
2024/01/26 08:55:17;;;;;;;11.65;7.30;;;;;;;13.10;65.06;97446.72;6156954;23;20012;-27
2024/01/26 08:57:43;;;;;;;15.82;7.75;;;;;;;13.09;65.05;97434.28;6156923;23;20005;-27
2024/01/26 09:00:09;;;;;;;14.45;8.40;;;;;;;13.21;64.96;97450.03;6156961;23;20336;-27
2024/01/26 09:02:35;;;;;;;11.73;8.40;;;;;;;13.25;64.49;97458.13;6156683;23;20005;-27
2024/01/26 09:05:00;;;;;;;16.55;7.55;;;;;;;13.33;64.49;97453.31;6156912;23;20064;-27
2024/01/26 09:07:26;;;;;;;13.32;7.95;;;;;;;13.33;63.99;97445.16;6156824;23;20451;-27
2024/01/26 09:09:52;;;;;;;12.77;7.63;;;;;;;13.44;63.62;97443.75;6156659;23;20009;-27
2024/01/26 09:12:17;;;;;;;14.48;8.45;;;;;;;13.30;63.84;97450.25;6156898;23;20009;-27
2024/01/26 09:14:43;;;;;;;16.40;8.45;;;;;;;13.35;63.92;97445.50;6156630;23;20479;-27
2024/01/26 09:17:08;;;;;;;15.43;8.13;;;;;;;13.27;64.17;97456.53;6156757;23;20028;-28
2024/01/26 09:19:34;;;;;;;12.20;7.55;;;;;;;13.23;64.55;97447.63;6156730;23;20012;-27
2024/01/26 09:21:59;;;;;;;15.05;8.07;;;;;;;13.40;63.85;97453.94;6156448;23;20073;-27
2024/01/26 09:24:25;;;;;;;15.13;7.82;;;;;;;13.22;64.63;97458.97;6157059;23;19998;-27
2024/01/26 09:26:52;;;;;;;15.30;8.10;;;;;;;13.39;63.48;97451.63;6156599;23;19998;-27
2024/01/26 09:29:18;;;;;;;15.23;8.27;;;;;;;13.25;64.53;97448.00;6156630;23;20006;-27
2024/01/26 09:31:43;;;;;;;17.38;8.40;;;;;;;13.45;63.17;97460.88;6156852;23;20006;-27
2024/01/26 09:34:09;;;;;;;18.98;9.88;;;;;;;13.48;63.33;97470.91;6156337;23;20352;-27
2024/01/26 09:36:34;;;;;;;20.05;8.88;;;;;;;13.43;63.77;97466.72;6156637;23;20084;-27
2024/01/26 09:39:00;;;;;;;18.80;9.00;;;;;;;13.36;63.47;97475.03;6156503;23;20048;-27
2024/01/26 09:41:25;;;;;;;16.85;8.25;;;;;;;13.17;64.34;97465.69;6156347;23;20064;-27
2024/01/26 09:43:51;;;;;;;16.15;7.63;;;;;;;13.34;63.78;97463.03;6156661;23;20064;-27
2024/01/26 09:46:17;;;;;;;13.35;7.22;;;;;;;13.35;63.65;97461.84;6156498;23;20036;-27
2024/01/26 09:48:43;;;;;;;18.30;9.52;;;;;;;13.37;63.42;97459.44;6156327;23;20013;-27
2024/01/26 09:51:09;;;;;;;14.13;7.60;;;;;;;13.40;63.75;97470.28;6156495;23;20369;-27
2024/01/26 09:53:35;;;;;;;17.30;8.32;;;;;;;13.41;63.55;97466.38;6156102;23;20040;-27
2024/01/26 09:56:01;;;;;;;14.57;7.30;;;;;;;13.26;63.93;97465.09;6130241;23;20001;-27
2024/01/26 09:58:27;;;;;;;11.27;6.90;;;;;;;13.26;64.05;97460.44;6156434;23;20431;-27
2024/01/26 10:00:55;;;;;;;12.55;7.03;;;;;;;13.28;63.92;97468.19;6156513;23;20001;-27
2024/01/26 10:03:24;;;;;;;13.85;7.63;;;;;;;13.17;64.35;97468.41;6156266;23;20506;-27
2024/01/26 10:05:50;;;;;;;13.40;7.15;;;;;;;13.40;63.52;97467.56;6156440;23;20376;-27
2024/01/26 10:08:16;;;;;;;15.25;7.32;;;;;;;13.42;63.65;97469.88;6156399;23;20036;-27
2024/01/26 10:10:42;;;;;;;14.18;7.63;;;;;;;13.22;64.35;97467.16;6156198;23;20032;-27
2024/01/26 10:13:07;;;;;;;18.40;8.55;;;;;;;13.34;64.04;97473.94;6156608;23;20423;-27
2024/01/26 10:15:33;;;;;;;10.38;7.05;;;;;;;13.43;63.60;97468.69;6156392;23;20001;-27
2024/01/26 10:17:58;;;;;;;13.00;8.80;;;;;;;13.37;64.01;97471.13;6156010;23;20040;-27
2024/01/26 10:20:24;;;;;;;13.93;8.15;;;;;;;13.54;62.92;97461.84;6156246;23;20005;-27
2024/01/26 10:22:49;;;;;;;9.77;7.85;;;;;;;13.36;64.16;97466.84;6156098;23;20080;-27
2024/01/26 10:25:15;;;;;;;14.48;7.57;;;;;;;13.40;64.03;97467.56;6156173;23;20012;-27
2024/01/26 10:27:41;;;;;;;11.50;7.88;;;;;;;13.24;64.63;97473.69;6156082;23;20447;-27
2024/01/26 10:30:08;;;;;;;15.07;8.02;;;;;;;13.40;64.17;97469.53;6155850;23;20442;-27
2024/01/26 10:32:34;;;;;;;16.00;7.80;;;;;;;13.50;63.78;97468.53;6156005;23;20009;-27
2024/01/26 10:35:02;;;;;;;17.30;8.07;;;;;;;13.29;64.60;97469.72;6156003;23;20013;-27
2024/01/26 10:37:30;;;;;;;13.95;7.95;;;;;;;13.40;64.11;97466.78;6155822;23;20002;-27
2024/01/26 10:39:57;;;;;;;12.90;7.70;;;;;;;13.51;63.26;97451.75;6156047;23;20009;-27
2024/01/26 10:42:24;;;;;;;13.50;8.43;;;;;;;13.23;64.41;97450.38;6155554;23;20460;-27
2024/01/26 10:44:54;;;;;;;16.00;8.00;;;;;;;13.49;63.18;97454.13;6156345;23;20029;-27
2024/01/26 10:47:21;;;;;;;12.85;7.95;;;;;;;13.61;62.81;97448.03;6155968;23;19998;-27
2024/01/26 10:49:49;;;;;;;13.00;7.05;;;;;;;13.52;63.03;97466.16;6156151;23;20033;-27
2024/01/26 10:52:20;;;;;;;11.88;8.13;;;;;;;13.40;63.10;97458.63;6155723;23;20005;-27
2024/01/26 10:54:49;;;;;;;11.13;6.38;;;;;;;13.35;63.45;97456.41;6155754;23;20001;-27
2024/01/26 10:57:16;;;;;;;11.85;6.85;;;;;;;13.55;62.54;97448.97;6155616;23;20009;-27
2024/01/26 10:59:43;;;;;;;15.27;7.13;;;;;;;13.49;62.97;97450.66;6155387;23;20060;-27
2024/01/26 11:02:29;;;;;;;11.88;7.38;;;;;;;13.45;62.92;97455.41;6156184;23;20001;-27
2024/01/26 11:05:09;;;;;;;14.75;7.80;;;;;;;13.64;62.32;97449.16;6155895;23;20002;-27
2024/01/26 11:07:36;;;;;;;15.25;7.65;;;;;;;13.46;63.31;97446.81;6129367;23;20001;-27
2024/01/26 11:10:04;;;;;;;12.35;6.88;;;;;;;13.50;62.72;97444.00;6156033;23;20012;-27
2024/01/26 11:12:31;;;;;;;15.75;7.10;;;;;;;13.36;63.35;97441.56;6155704;23;20001;-27
2024/01/26 11:15:08;;;;;;;13.55;7.35;;;;;;;13.60;62.54;97445.75;6155666;23;20024;-27
2024/01/26 11:17:43;;;;;;;14.38;7.55;;;;;;;13.56;62.59;97447.78;6155609;23;20072;-27
2024/01/26 11:20:18;;;;;;;11.52;7.05;;;;;;;13.46;62.82;97440.59;6155561;23;20001;-27
2024/01/26 11:22:44;;;;;;;15.07;7.90;;;;;;;13.47;63.31;97436.69;6155724;23;20320;-27